sensor_id;sensor_type;location;lat;lon;timestamp;pressure;altitude;pressure_sealevel;temperature;humidity
19210;BME280;9738;51.654;14.238;2023-02-04T00:01:49;100749.19;;;2.92;100.00
19210;BME280;9738;51.654;14.238;2023-02-04T00:04:15;100767.97;;;2.88;100.00
19210;BME280;9738;51.654;14.238;2023-02-04T00:06:41;100778.31;;;2.91;100.00
19210;BME280;9738;51.654;14.238;2023-02-04T00:09:07;100798.78;;;2.87;100.00
19210;BME280;9738;51.654;14.238;2023-02-04T00:11:33;100816.56;;;2.69;100.00
19210;BME280;9738;51.654;14.238;2023-02-04T00:13:59;100816.44;;;2.57;100.00
19210;BME280;9738;51.654;14.238;2023-02-04T00:16:25;100831.94;;;2.47;100.00
19210;BME280;9738;51.654;14.238;2023-02-04T00:18:50;100811.31;;;2.39;100.00
19210;BME280;9738;51.654;14.238;2023-02-04T00:21:17;100840.31;;;2.39;100.00
19210;BME280;9738;51.654;14.238;2023-02-04T00:23:42;100842.94;;;2.39;100.00
19210;BME280;9738;51.654;14.238;2023-02-04T00:26:08;100844.56;;;2.42;100.00
19210;BME280;9738;51.654;14.238;2023-02-04T00:28:35;100855.59;;;2.49;100.00
19210;BME280;9738;51.654;14.238;2023-02-04T00:31:00;100886.34;;;2.48;100.00
19210;BME280;9738;51.654;14.238;2023-02-04T00:33:26;100897.84;;;2.47;100.00
19210;BME280;9738;51.654;14.238;2023-02-04T00:35:54;100895.06;;;2.50;100.00
19210;BME280;9738;51.654;14.238;2023-02-04T00:38:19;100900.47;;;2.47;100.00
19210;BME280;9738;51.654;14.238;2023-02-04T00:40:45;100911.88;;;2.48;100.00
19210;BME280;9738;51.654;14.238;2023-02-04T00:43:12;100919.72;;;2.49;100.00
19210;BME280;9738;51.654;14.238;2023-02-04T00:45:38;100927.13;;;2.42;100.00
19210;BME280;9738;51.654;14.238;2023-02-04T00:48:03;100941.72;;;2.48;100.00
19210;BME280;9738;51.654;14.238;2023-02-04T00:50:30;100956.69;;;2.48;100.00
19210;BME280;9738;51.654;14.238;2023-02-04T00:52:56;100964.25;;;2.54;100.00
19210;BME280;9738;51.654;14.238;2023-02-04T00:55:24;100982.41;;;2.44;100.00
19210;BME280;9738;51.654;14.238;2023-02-04T00:57:50;100990.81;;;2.35;100.00
19210;BME280;9738;51.654;14.238;2023-02-04T01:00:16;100989.38;;;2.29;100.00
19210;BME280;9738;51.654;14.238;2023-02-04T01:02:42;101003.56;;;2.27;100.00
19210;BME280;9738;51.654;14.238;2023-02-04T01:05:08;101011.56;;;2.25;100.00
19210;BME280;9738;51.654;14.238;2023-02-04T01:07:35;101023.97;;;2.23;100.00
19210;BME280;9738;51.654;14.238;2023-02-04T01:10:01;101019.56;;;2.24;100.00
19210;BME280;9738;51.654;14.238;2023-02-04T01:12:27;101041.31;;;2.27;100.00
19210;BME280;9738;51.654;14.238;2023-02-04T01:14:54;101047.38;;;2.29;100.00
19210;BME280;9738;51.654;14.238;2023-02-04T01:17:20;101051.72;;;2.30;100.00
19210;BME280;9738;51.654;14.238;2023-02-04T01:19:46;101071.09;;;2.29;100.00
19210;BME280;9738;51.654;14.238;2023-02-04T01:22:12;101085.78;;;2.33;100.00
19210;BME280;9738;51.654;14.238;2023-02-04T01:24:38;101098.13;;;2.33;100.00
19210;BME280;9738;51.654;14.238;2023-02-04T01:27:05;101104.16;;;2.35;100.00
19210;BME280;9738;51.654;14.238;2023-02-04T01:29:30;101129.09;;;2.29;100.00
19210;BME280;9738;51.654;14.238;2023-02-04T01:31:56;101137.00;;;2.29;100.00
19210;BME280;9738;51.654;14.238;2023-02-04T01:34:22;101144.91;;;2.29;100.00
19210;BME280;9738;51.654;14.238;2023-02-04T01:36:50;101162.63;;;2.26;100.00
19210;BME280;9738;51.654;14.238;2023-02-04T01:39:16;101177.84;;;2.21;100.00
19210;BME280;9738;51.654;14.238;2023-02-04T01:41:43;101191.78;;;2.23;100.00
19210;BME280;9738;51.654;14.238;2023-02-04T01:44:09;101205.75;;;2.25;100.00
19210;BME280;9738;51.654;14.238;2023-02-04T01:46:35;101208.06;;;2.13;100.00
19210;BME280;9738;51.654;14.238;2023-02-04T01:49:05;101238.09;;;2.11;100.00
19210;BME280;9738;51.654;14.238;2023-02-04T01:51:31;101234.75;;;2.07;100.00
19210;BME280;9738;51.654;14.238;2023-02-04T01:53:58;101248.84;;;2.06;100.00
19210;BME280;9738;51.654;14.238;2023-02-04T01:56:26;101251.78;;;2.00;100.00
19210;BME280;9738;51.654;14.238;2023-02-04T01:58:55;101265.09;;;1.97;100.00
19210;BME280;9738;51.654;14.238;2023-02-04T02:01:40;101283.53;;;1.97;100.00
19210;BME280;9738;51.654;14.238;2023-02-04T02:04:11;101271.56;;;1.92;100.00
19210;BME280;9738;51.654;14.238;2023-02-04T02:06:41;101292.53;;;1.93;100.00
19210;BME280;9738;51.654;14.238;2023-02-04T02:09:09;101308.25;;;1.95;100.00
19210;BME280;9738;51.654;14.238;2023-02-04T02:11:35;101308.47;;;1.90;100.00
19210;BME280;9738;51.654;14.238;2023-02-04T02:14:00;101310.91;;;1.95;100.00
19210;BME280;9738;51.654;14.238;2023-02-04T02:16:27;101318.13;;;1.91;100.00
19210;BME280;9738;51.654;14.238;2023-02-04T02:18:53;101318.88;;;1.93;100.00
19210;BME280;9738;51.654;14.238;2023-02-04T02:21:26;101328.66;;;1.91;100.00
19210;BME280;9738;51.654;14.238;2023-02-04T02:23:56;101345.53;;;1.87;100.00
19210;BME280;9738;51.654;14.238;2023-02-04T02:26:22;101355.03;;;1.89;100.00
19210;BME280;9738;51.654;14.238;2023-02-04T02:28:48;101362.91;;;1.91;100.00
19210;BME280;9738;51.654;14.238;2023-02-04T02:31:17;101364.72;;;1.89;100.00
19210;BME280;9738;51.654;14.238;2023-02-04T02:33:44;101376.13;;;1.89;100.00
19210;BME280;9738;51.654;14.238;2023-02-04T02:36:10;101377.91;;;1.89;100.00
19210;BME280;9738;51.654;14.238;2023-02-04T02:38:37;101382.47;;;1.85;100.00
19210;BME280;9738;51.654;14.238;2023-02-04T02:41:04;101394.50;;;1.91;100.00
19210;BME280;9738;51.654;14.238;2023-02-04T02:43:30;101407.44;;;1.96;100.00
19210;BME280;9738;51.654;14.238;2023-02-04T02:45:58;101409.22;;;1.95;100.00
19210;BME280;9738;51.654;14.238;2023-02-04T02:48:25;101419.00;;;1.93;100.00
19210;BME280;9738;51.654;14.238;2023-02-04T02:50:51;101414.41;;;1.97;100.00
19210;BME280;9738;51.654;14.238;2023-02-04T02:53:19;101424.09;;;1.96;100.00
19210;BME280;9738;51.654;14.238;2023-02-04T02:55:45;101427.59;;;1.97;100.00
19210;BME280;9738;51.654;14.238;2023-02-04T02:58:21;101440.47;;;1.84;100.00
19210;BME280;9738;51.654;14.238;2023-02-04T03:00:48;101454.94;;;1.75;100.00
19210;BME280;9738;51.654;14.238;2023-02-04T03:03:18;101455.13;;;1.71;100.00
19210;BME280;9738;51.654;14.238;2023-02-04T03:05:49;101471.00;;;1.69;100.00
19210;BME280;9738;51.654;14.238;2023-02-04T03:08:18;101486.13;;;1.66;100.00
19210;BME280;9738;51.654;14.238;2023-02-04T03:10:44;101488.09;;;1.60;100.00
19210;BME280;9738;51.654;14.238;2023-02-04T03:13:11;101499.31;;;1.64;100.00
19210;BME280;9738;51.654;14.238;2023-02-04T03:15:40;101509.84;;;1.64;100.00
19210;BME280;9738;51.654;14.238;2023-02-04T03:18:07;101516.13;;;1.61;100.00
19210;BME280;9738;51.654;14.238;2023-02-04T03:20:33;101522.25;;;1.62;100.00
19210;BME280;9738;51.654;14.238;2023-02-04T03:23:00;101530.22;;;1.60;100.00
19210;BME280;9738;51.654;14.238;2023-02-04T03:25:26;101542.53;;;1.60;100.00
19210;BME280;9738;51.654;14.238;2023-02-04T03:27:56;101546.06;;;1.59;100.00
19210;BME280;9738;51.654;14.238;2023-02-04T03:30:24;101572.63;;;1.54;100.00
19210;BME280;9738;51.654;14.238;2023-02-04T03:32:50;101579.69;;;1.52;100.00
19210;BME280;9738;51.654;14.238;2023-02-04T03:35:17;101582.06;;;1.58;100.00
19210;BME280;9738;51.654;14.238;2023-02-04T03:37:43;101595.19;;;1.60;100.00
19210;BME280;9738;51.654;14.238;2023-02-04T03:40:10;101596.84;;;1.62;100.00
19210;BME280;9738;51.654;14.238;2023-02-04T03:42:36;101609.88;;;1.66;100.00
19210;BME280;9738;51.654;14.238;2023-02-04T03:45:02;101603.81;;;1.63;100.00
19210;BME280;9738;51.654;14.238;2023-02-04T03:47:28;101620.72;;;1.58;100.00
19210;BME280;9738;51.654;14.238;2023-02-04T03:49:54;101622.50;;;1.57;100.00
19210;BME280;9738;51.654;14.238;2023-02-04T03:52:21;101625.03;;;1.60;100.00
19210;BME280;9738;51.654;14.238;2023-02-04T03:54:46;101627.50;;;1.63;100.00
19210;BME280;9738;51.654;14.238;2023-02-04T03:57:12;101643.38;;;1.62;100.00
19210;BME280;9738;51.654;14.238;2023-02-04T03:59:41;101641.66;;;1.61;100.00
19210;BME280;9738;51.654;14.238;2023-02-04T04:02:06;101653.13;;;1.60;100.00
19210;BME280;9738;51.654;14.238;2023-02-04T04:04:32;101668.25;;;1.55;100.00
19210;BME280;9738;51.654;14.238;2023-02-04T04:06:58;101677.78;;;1.57;100.00
19210;BME280;9738;51.654;14.238;2023-02-04T04:09:24;101689.56;;;1.49;100.00
19210;BME280;9738;51.654;14.238;2023-02-04T04:11:50;101699.44;;;1.44;100.00
19210;BME280;9738;51.654;14.238;2023-02-04T04:14:16;101707.38;;;1.42;100.00
19210;BME280;9738;51.654;14.238;2023-02-04T04:16:42;101717.25;;;1.37;100.00
19210;BME280;9738;51.654;14.238;2023-02-04T04:19:08;101717.72;;;1.25;100.00
19210;BME280;9738;51.654;14.238;2023-02-04T04:21:34;101720.72;;;1.16;100.00
19210;BME280;9738;51.654;14.238;2023-02-04T04:24:00;101740.16;;;1.12;100.00
19210;BME280;9738;51.654;14.238;2023-02-04T04:26:26;101744.69;;;1.08;100.00
19210;BME280;9738;51.654;14.238;2023-02-04T04:28:52;101760.66;;;1.03;100.00
19210;BME280;9738;51.654;14.238;2023-02-04T04:31:18;101759.28;;;0.93;100.00
19210;BME280;9738;51.654;14.238;2023-02-04T04:33:44;101762.06;;;0.89;100.00
19210;BME280;9738;51.654;14.238;2023-02-04T04:36:10;101770.25;;;0.81;100.00
19210;BME280;9738;51.654;14.238;2023-02-04T04:38:36;101778.38;;;0.75;100.00
19210;BME280;9738;51.654;14.238;2023-02-04T04:41:01;101785.47;;;0.73;100.00
19210;BME280;9738;51.654;14.238;2023-02-04T04:43:28;101787.47;;;0.66;100.00
19210;BME280;9738;51.654;14.238;2023-02-04T04:45:54;101804.31;;;0.61;100.00
19210;BME280;9738;51.654;14.238;2023-02-04T04:48:19;101815.81;;;0.58;100.00
19210;BME280;9738;51.654;14.238;2023-02-04T04:50:46;101818.47;;;0.57;100.00
19210;BME280;9738;51.654;14.238;2023-02-04T04:53:12;101830.88;;;0.53;100.00
19210;BME280;9738;51.654;14.238;2023-02-04T04:55:38;101828.31;;;0.50;100.00
19210;BME280;9738;51.654;14.238;2023-02-04T04:58:06;101842.44;;;0.47;100.00
19210;BME280;9738;51.654;14.238;2023-02-04T05:00:32;101844.31;;;0.44;100.00
19210;BME280;9738;51.654;14.238;2023-02-04T05:02:58;101853.94;;;0.45;100.00
19210;BME280;9738;51.654;14.238;2023-02-04T05:05:24;101858.44;;;0.41;100.00
19210;BME280;9738;51.654;14.238;2023-02-04T05:07:50;101867.38;;;0.36;100.00
19210;BME280;9738;51.654;14.238;2023-02-04T05:10:16;101873.47;;;0.36;100.00
19210;BME280;9738;51.654;14.238;2023-02-04T05:12:42;101885.72;;;0.37;100.00
19210;BME280;9738;51.654;14.238;2023-02-04T05:15:08;101884.97;;;0.34;100.00
19210;BME280;9738;51.654;14.238;2023-02-04T05:17:34;101891.28;;;0.28;100.00
19210;BME280;9738;51.654;14.238;2023-02-04T05:20:00;101897.78;;;0.16;100.00
19210;BME280;9738;51.654;14.238;2023-02-04T05:22:26;101903.19;;;0.12;100.00
19210;BME280;9738;51.654;14.238;2023-02-04T05:24:51;101921.50;;;0.15;100.00
19210;BME280;9738;51.654;14.238;2023-02-04T05:27:18;101922.41;;;0.12;100.00
19210;BME280;9738;51.654;14.238;2023-02-04T05:29:43;101927.00;;;0.06;100.00
19210;BME280;9738;51.654;14.238;2023-02-04T05:32:09;101934.81;;;0.09;100.00
19210;BME280;9738;51.654;14.238;2023-02-04T05:34:36;101934.09;;;0.04;100.00
19210;BME280;9738;51.654;14.238;2023-02-04T05:37:01;101942.09;;;0.01;100.00
19210;BME280;9738;51.654;14.238;2023-02-04T05:39:27;101951.91;;;-0.06;100.00
19210;BME280;9738;51.654;14.238;2023-02-04T05:41:53;101954.66;;;-0.11;100.00
19210;BME280;9738;51.654;14.238;2023-02-04T05:44:19;101957.38;;;-0.14;100.00
19210;BME280;9738;51.654;14.238;2023-02-04T05:46:45;101968.03;;;-0.18;100.00
19210;BME280;9738;51.654;14.238;2023-02-04T05:49:11;101980.47;;;-0.25;100.00
19210;BME280;9738;51.654;14.238;2023-02-04T05:51:37;101985.00;;;-0.30;100.00
19210;BME280;9738;51.654;14.238;2023-02-04T05:54:03;101991.22;;;-0.34;100.00
19210;BME280;9738;51.654;14.238;2023-02-04T05:56:29;102003.63;;;-0.39;100.00
19210;BME280;9738;51.654;14.238;2023-02-04T05:58:55;102001.84;;;-0.39;100.00
19210;BME280;9738;51.654;14.238;2023-02-04T06:01:21;102012.34;;;-0.39;100.00
19210;BME280;9738;51.654;14.238;2023-02-04T06:03:47;102011.41;;;-0.36;100.00
19210;BME280;9738;51.654;14.238;2023-02-04T06:06:13;102016.72;;;-0.38;100.00
19210;BME280;9738;51.654;14.238;2023-02-04T06:08:39;102023.00;;;-0.43;100.00
19210;BME280;9738;51.654;14.238;2023-02-04T06:11:05;102025.63;;;-0.45;100.00
19210;BME280;9738;51.654;14.238;2023-02-04T06:13:31;102043.25;;;-0.48;100.00
19210;BME280;9738;51.654;14.238;2023-02-04T06:15:56;102045.06;;;-0.50;100.00
19210;BME280;9738;51.654;14.238;2023-02-04T06:18:23;102047.75;;;-0.53;100.00
19210;BME280;9738;51.654;14.238;2023-02-04T06:20:48;102046.09;;;-0.58;100.00
19210;BME280;9738;51.654;14.238;2023-02-04T06:23:14;102062.75;;;-0.57;100.00
19210;BME280;9738;51.654;14.238;2023-02-04T06:25:41;102054.94;;;-0.60;100.00
19210;BME280;9738;51.654;14.238;2023-02-04T06:28:06;102060.22;;;-0.62;100.00
19210;BME280;9738;51.654;14.238;2023-02-04T06:30:32;102064.63;;;-0.64;100.00
19210;BME280;9738;51.654;14.238;2023-02-04T06:32:58;102067.25;;;-0.64;100.00
19210;BME280;9738;51.654;14.238;2023-02-04T06:35:24;102062.09;;;-0.67;100.00
19210;BME280;9738;51.654;14.238;2023-02-04T06:37:50;102077.03;;;-0.69;100.00
19210;BME280;9738;51.654;14.238;2023-02-04T06:40:16;102086.59;;;-0.66;100.00
19210;BME280;9738;51.654;14.238;2023-02-04T06:42:42;102088.34;;;-0.67;100.00
19210;BME280;9738;51.654;14.238;2023-02-04T06:45:08;102092.69;;;-0.66;100.00
19210;BME280;9738;51.654;14.238;2023-02-04T06:47:34;102093.44;;;-0.61;100.00
19210;BME280;9738;51.654;14.238;2023-02-04T06:50:00;102101.16;;;-0.55;100.00
19210;BME280;9738;51.654;14.238;2023-02-04T06:52:26;102106.91;;;-0.40;100.00
19210;BME280;9738;51.654;14.238;2023-02-04T06:54:52;102116.97;;;-0.23;100.00
19210;BME280;9738;51.654;14.238;2023-02-04T06:57:18;102110.38;;;-0.07;100.00
19210;BME280;9738;51.654;14.238;2023-02-04T06:59:44;102113.34;;;0.12;100.00
19210;BME280;9738;51.654;14.238;2023-02-04T07:02:12;102106.81;;;0.26;100.00
19210;BME280;9738;51.654;14.238;2023-02-04T07:04:38;102118.22;;;0.25;100.00
19210;BME280;9738;51.654;14.238;2023-02-04T07:07:03;102112.19;;;0.22;100.00
19210;BME280;9738;51.654;14.238;2023-02-04T07:09:30;102115.72;;;0.21;100.00
19210;BME280;9738;51.654;14.238;2023-02-04T07:11:55;102121.84;;;0.21;100.00
19210;BME280;9738;51.654;14.238;2023-02-04T07:14:21;102119.78;;;0.33;100.00
19210;BME280;9738;51.654;14.238;2023-02-04T07:16:47;102123.03;;;0.41;100.00
19210;BME280;9738;51.654;14.238;2023-02-04T07:19:13;102135.22;;;0.43;100.00
19210;BME280;9738;51.654;14.238;2023-02-04T07:21:39;102135.13;;;0.46;100.00
19210;BME280;9738;51.654;14.238;2023-02-04T07:24:05;102128.97;;;0.47;100.00
19210;BME280;9738;51.654;14.238;2023-02-04T07:26:31;102135.94;;;0.48;100.00
19210;BME280;9738;51.654;14.238;2023-02-04T07:28:56;102139.38;;;0.50;100.00
19210;BME280;9738;51.654;14.238;2023-02-04T07:31:23;102141.97;;;0.52;100.00
19210;BME280;9738;51.654;14.238;2023-02-04T07:33:48;102144.63;;;0.52;100.00
19210;BME280;9738;51.654;14.238;2023-02-04T07:36:14;102142.91;;;0.51;100.00
19210;BME280;9738;51.654;14.238;2023-02-04T07:38:41;102137.59;;;0.52;100.00
19210;BME280;9738;51.654;14.238;2023-02-04T07:41:06;102137.63;;;0.51;100.00
19210;BME280;9738;51.654;14.238;2023-02-04T07:43:32;102140.22;;;0.52;100.00
19210;BME280;9738;51.654;14.238;2023-02-04T07:45:58;102144.44;;;0.57;100.00
19210;BME280;9738;51.654;14.238;2023-02-04T07:48:24;102153.91;;;0.64;100.00
19210;BME280;9738;51.654;14.238;2023-02-04T07:50:50;102160.78;;;0.68;100.00
19210;BME280;9738;51.654;14.238;2023-02-04T07:53:16;102175.56;;;0.72;100.00
19210;BME280;9738;51.654;14.238;2023-02-04T07:55:42;102173.69;;;0.75;100.00
19210;BME280;9738;51.654;14.238;2023-02-04T07:58:08;102175.28;;;0.81;100.00
19210;BME280;9738;51.654;14.238;2023-02-04T08:00:34;102176.91;;;0.85;100.00
19210;BME280;9738;51.654;14.238;2023-02-04T08:03:00;102185.53;;;0.90;100.00
19210;BME280;9738;51.654;14.238;2023-02-04T08:05:25;102191.19;;;1.06;100.00
19210;BME280;9738;51.654;14.238;2023-02-04T08:07:52;102195.78;;;1.27;100.00
19210;BME280;9738;51.654;14.238;2023-02-04T08:10:17;102193.72;;;1.63;100.00
19210;BME280;9738;51.654;14.238;2023-02-04T08:12:44;102201.06;;;2.05;100.00
19210;BME280;9738;51.654;14.238;2023-02-04T08:15:10;102208.41;;;2.46;100.00
19210;BME280;9738;51.654;14.238;2023-02-04T08:17:36;102219.63;;;2.76;100.00
19210;BME280;9738;51.654;14.238;2023-02-04T08:20:02;102225.78;;;2.98;100.00
19210;BME280;9738;51.654;14.238;2023-02-04T08:22:29;102218.47;;;3.28;100.00
19210;BME280;9738;51.654;14.238;2023-02-04T08:24:54;102220.53;;;3.42;100.00
19210;BME280;9738;51.654;14.238;2023-02-04T08:27:20;102222.50;;;3.37;100.00
19210;BME280;9738;51.654;14.238;2023-02-04T08:29:47;102234.84;;;3.14;100.00
19210;BME280;9738;51.654;14.238;2023-02-04T08:32:13;102231.28;;;2.92;100.00
19210;BME280;9738;51.654;14.238;2023-02-04T08:34:39;102240.97;;;2.93;100.00
19210;BME280;9738;51.654;14.238;2023-02-04T08:37:05;102246.97;;;2.73;100.00
19210;BME280;9738;51.654;14.238;2023-02-04T08:39:31;102248.38;;;2.58;100.00
19210;BME280;9738;51.654;14.238;2023-02-04T08:41:57;102254.22;;;2.43;100.00
19210;BME280;9738;51.654;14.238;2023-02-04T08:44:24;102264.38;;;2.29;100.00
19210;BME280;9738;51.654;14.238;2023-02-04T08:46:49;102266.72;;;2.38;100.00
19210;BME280;9738;51.654;14.238;2023-02-04T08:49:15;102282.84;;;2.29;100.00
19210;BME280;9738;51.654;14.238;2023-02-04T08:51:41;102281.19;;;2.26;100.00
19210;BME280;9738;51.654;14.238;2023-02-04T08:54:07;102283.69;;;2.54;100.00
19210;BME280;9738;51.654;14.238;2023-02-04T08:56:33;102288.22;;;2.51;100.00
19210;BME280;9738;51.654;14.238;2023-02-04T08:59:00;102287.16;;;2.56;100.00
19210;BME280;9738;51.654;14.238;2023-02-04T09:01:26;102290.41;;;2.88;100.00
19210;BME280;9738;51.654;14.238;2023-02-04T09:03:51;102290.38;;;3.11;100.00
19210;BME280;9738;51.654;14.238;2023-02-04T09:06:18;102291.56;;;3.49;100.00
19210;BME280;9738;51.654;14.238;2023-02-04T09:08:44;102286.56;;;3.42;100.00
19210;BME280;9738;51.654;14.238;2023-02-04T09:11:09;102298.97;;;3.63;100.00
19210;BME280;9738;51.654;14.238;2023-02-04T09:13:37;102295.03;;;3.94;100.00
19210;BME280;9738;51.654;14.238;2023-02-04T09:16:04;102297.59;;;3.97;100.00
19210;BME280;9738;51.654;14.238;2023-02-04T09:18:29;102294.59;;;3.84;100.00
19210;BME280;9738;51.654;14.238;2023-02-04T09:20:58;102303.28;;;3.86;100.00
19210;BME280;9738;51.654;14.238;2023-02-04T09:23:23;102301.25;;;3.93;100.00
19210;BME280;9738;51.654;14.238;2023-02-04T09:25:49;102307.56;;;4.11;100.00
19210;BME280;9738;51.654;14.238;2023-02-04T09:28:16;102322.25;;;4.18;100.00
19210;BME280;9738;51.654;14.238;2023-02-04T09:30:44;102319.44;;;4.22;100.00
19210;BME280;9738;51.654;14.238;2023-02-04T09:33:11;102322.78;;;4.26;100.00
19210;BME280;9738;51.654;14.238;2023-02-04T09:35:38;102333.34;;;4.27;100.00
19210;BME280;9738;51.654;14.238;2023-02-04T09:38:04;102332.47;;;4.27;100.00
19210;BME280;9738;51.654;14.238;2023-02-04T09:40:32;102337.16;;;4.20;100.00
19210;BME280;9738;51.654;14.238;2023-02-04T09:43:00;102332.41;;;4.06;100.00
19210;BME280;9738;51.654;14.238;2023-02-04T09:45:29;102329.63;;;3.89;100.00
19210;BME280;9738;51.654;14.238;2023-02-04T09:47:57;102342.03;;;3.87;100.00
19210;BME280;9738;51.654;14.238;2023-02-04T09:50:26;102345.53;;;3.88;100.00
19210;BME280;9738;51.654;14.238;2023-02-04T09:52:54;102337.78;;;4.05;100.00
19210;BME280;9738;51.654;14.238;2023-02-04T09:55:26;102347.50;;;4.26;100.00
19210;BME280;9738;51.654;14.238;2023-02-04T09:57:53;102341.66;;;4.39;100.00
19210;BME280;9738;51.654;14.238;2023-02-04T10:00:22;102348.09;;;4.53;100.00
19210;BME280;9738;51.654;14.238;2023-02-04T10:02:48;102348.16;;;4.72;100.00
19210;BME280;9738;51.654;14.238;2023-02-04T10:05:20;102344.28;;;5.00;100.00
19210;BME280;9738;51.654;14.238;2023-02-04T10:07:49;102347.59;;;5.05;100.00
19210;BME280;9738;51.654;14.238;2023-02-04T10:10:18;102353.97;;;5.20;100.00
19210;BME280;9738;51.654;14.238;2023-02-04T10:12:45;102353.63;;;5.27;100.00
19210;BME280;9738;51.654;14.238;2023-02-04T10:15:13;102367.25;;;5.38;100.00
19210;BME280;9738;51.654;14.238;2023-02-04T10:17:41;102358.22;;;5.61;100.00
19210;BME280;9738;51.654;14.238;2023-02-04T10:22:39;102368.75;;;6.01;100.00
19210;BME280;9738;51.654;14.238;2023-02-04T10:25:17;102365.94;;;6.04;100.00
19210;BME280;9738;51.654;14.238;2023-02-04T10:27:50;102375.34;;;6.28;100.00
19210;BME280;9738;51.654;14.238;2023-02-04T10:30:23;102370.75;;;6.32;100.00
19210;BME280;9738;51.654;14.238;2023-02-04T10:32:49;102378.09;;;6.27;100.00
19210;BME280;9738;51.654;14.238;2023-02-04T10:35:17;102376.75;;;6.35;74.17
19210;BME280;9738;51.654;14.238;2023-02-04T10:37:44;102375.59;;;6.41;72.60
19210;BME280;9738;51.654;14.238;2023-02-04T10:40:29;102373.03;;;6.57;71.93
19210;BME280;9738;51.654;14.238;2023-02-04T10:42:56;102373.97;;;6.56;72.60
19210;BME280;9738;51.654;14.238;2023-02-04T10:45:26;102383.94;;;6.33;71.42
19210;BME280;9738;51.654;14.238;2023-02-04T10:47:53;102375.56;;;6.06;72.33
19210;BME280;9738;51.654;14.238;2023-02-04T10:50:22;102380.78;;;6.08;73.15
19210;BME280;9738;51.654;14.238;2023-02-04T10:52:52;102381.66;;;6.26;74.66
19210;BME280;9738;51.654;14.238;2023-02-04T10:55:22;102383.16;;;6.31;72.33
19210;BME280;9738;51.654;14.238;2023-02-04T10:57:50;102378.69;;;6.14;72.18
19210;BME280;9738;51.654;14.238;2023-02-04T11:00:22;102381.84;;;5.85;70.89
19210;BME280;9738;51.654;14.238;2023-02-04T11:02:58;102387.22;;;5.46;72.01
19210;BME280;9738;51.654;14.238;2023-02-04T11:05:30;102380.28;;;5.24;73.20
19210;BME280;9738;51.654;14.238;2023-02-04T11:07:57;102384.66;;;5.05;74.84
19210;BME280;9738;51.654;14.238;2023-02-04T11:10:27;102391.56;;;4.68;75.75
19210;BME280;9738;51.654;14.238;2023-02-04T11:16:12;102387.81;;;4.31;77.98
19210;BME280;9738;51.654;14.238;2023-02-04T11:18:54;102387.19;;;4.25;80.13
19210;BME280;9738;51.654;14.238;2023-02-04T11:23:50;102389.00;;;5.26;77.46
19210;BME280;9738;51.654;14.238;2023-02-04T11:26:19;102393.63;;;5.41;75.29
19210;BME280;9738;51.654;14.238;2023-02-04T11:31:27;102400.34;;;5.86;71.58
19210;BME280;9738;51.654;14.238;2023-02-04T11:42:26;102401.38;;;4.86;74.98
19210;BME280;9738;51.654;14.238;2023-02-04T11:45:01;102402.22;;;4.46;74.86
19210;BME280;9738;51.654;14.238;2023-02-04T11:47:34;102402.75;;;4.32;75.36
19210;BME280;9738;51.654;14.238;2023-02-04T11:50:03;102403.69;;;4.31;76.19
19210;BME280;9738;51.654;14.238;2023-02-04T11:52:34;102402.13;;;4.26;76.99
19210;BME280;9738;51.654;14.238;2023-02-04T11:55:00;102397.53;;;4.31;75.79
19210;BME280;9738;51.654;14.238;2023-02-04T11:57:26;102394.38;;;4.43;76.49
19210;BME280;9738;51.654;14.238;2023-02-04T11:59:52;102395.13;;;4.47;77.23
19210;BME280;9738;51.654;14.238;2023-02-04T12:02:22;102391.16;;;4.57;76.74
19210;BME280;9738;51.654;14.238;2023-02-04T12:05:10;102400.34;;;4.48;74.98
19210;BME280;9738;51.654;14.238;2023-02-04T12:07:37;102407.16;;;4.33;74.09
19210;BME280;9738;51.654;14.238;2023-02-04T12:10:21;102417.47;;;4.18;72.62
19210;BME280;9738;51.654;14.238;2023-02-04T12:12:53;102418.03;;;4.04;73.55
19210;BME280;9738;51.654;14.238;2023-02-04T12:15:33;102421.94;;;3.94;76.06
19210;BME280;9738;51.654;14.238;2023-02-04T12:18:07;102418.91;;;3.81;77.07
19210;BME280;9738;51.654;14.238;2023-02-04T12:20:37;102423.16;;;3.85;79.21
19210;BME280;9738;51.654;14.238;2023-02-04T12:23:04;102419.44;;;3.91;80.66
19210;BME280;9738;51.654;14.238;2023-02-04T12:25:30;102426.59;;;3.87;79.99
19210;BME280;9738;51.654;14.238;2023-02-04T12:27:56;102424.97;;;3.85;80.84
19210;BME280;9738;51.654;14.238;2023-02-04T12:30:23;102431.34;;;3.79;81.58
19210;BME280;9738;51.654;14.238;2023-02-04T12:32:50;102428.38;;;3.65;80.93
19210;BME280;9738;51.654;14.238;2023-02-04T12:35:16;102434.97;;;3.53;81.08
19210;BME280;9738;51.654;14.238;2023-02-04T12:37:43;102426.50;;;3.43;81.18
19210;BME280;9738;51.654;14.238;2023-02-04T12:40:14;102429.56;;;3.33;81.28
19210;BME280;9738;51.654;14.238;2023-02-04T12:42:41;102438.56;;;3.27;80.96
19210;BME280;9738;51.654;14.238;2023-02-04T12:45:08;102435.84;;;3.29;80.58
19210;BME280;9738;51.654;14.238;2023-02-04T12:47:33;102443.09;;;3.23;81.04
19210;BME280;9738;51.654;14.238;2023-02-04T12:49:59;102443.94;;;3.24;81.80
19210;BME280;9738;51.654;14.238;2023-02-04T12:52:25;102435.69;;;3.33;83.01
19210;BME280;9738;51.654;14.238;2023-02-04T12:54:51;102443.34;;;3.41;83.65
19210;BME280;9738;51.654;14.238;2023-02-04T12:57:17;102438.53;;;3.52;83.17
19210;BME280;9738;51.654;14.238;2023-02-04T12:59:45;102446.09;;;3.61;83.56
19210;BME280;9738;51.654;14.238;2023-02-04T13:02:11;102450.38;;;3.65;81.83
19210;BME280;9738;51.654;14.238;2023-02-04T13:04:37;102453.56;;;3.73;81.89
19210;BME280;9738;51.654;14.238;2023-02-04T13:07:04;102453.34;;;3.79;81.69
19210;BME280;9738;51.654;14.238;2023-02-04T13:09:33;102465.63;;;3.80;80.94